Time;durP1;ratioP1;P1;durP2;ratioP2;P2;SDS_P1;SDS_P2;PMS_P1;PMS_P2;Temp;Humidity;BMP_temperature;BMP_pressure;BME280_temperature;BME280_humidity;BME280_pressure;Samples;Min_cycle;Max_cycle;Signal;HPM_P1;HPM_P2
2022/12/27 00:00:14;;;;;;;12.45;2.58;;;;;;;;;;4995071;28;20068;-78
2022/12/27 00:02:41;;;;;;;12.30;1.92;;;;;;;;;;5013095;28;20510;-78
2022/12/27 00:05:08;;;;;;;13.68;2.65;;;;;;;;;;5011686;28;20037;-78
2022/12/27 00:07:36;;;;;;;7.82;2.25;;;;;;;;;;4993096;28;20025;-80
2022/12/27 00:10:03;;;;;;;14.50;2.90;;;;;;;;;;5011549;28;20026;-78
2022/12/27 00:12:29;;;;;;;10.82;2.40;;;;;;;;;;4994072;28;20458;-79
2022/12/27 00:14:55;;;;;;;8.45;2.25;;;;;;;;;;4993987;28;20036;-78
2022/12/27 00:17:21;;;;;;;11.13;2.80;;;;;;;;;;5010968;28;20116;-78
2022/12/27 00:19:47;;;;;;;11.35;2.83;;;;;;;;;;4993830;28;20220;-78
2022/12/27 00:22:13;;;;;;;9.75;2.55;;;;;;;;;;4993775;28;20049;-77
2022/12/27 00:24:40;;;;;;;7.03;2.45;;;;;;;;;;5011259;28;20022;-78
2022/12/27 00:27:06;;;;;;;8.07;2.47;;;;;;;;;;5010459;28;20427;-78
2022/12/27 00:29:32;;;;;;;8.68;2.20;;;;;;;;;;4993792;28;20025;-77
2022/12/27 00:31:58;;;;;;;9.00;2.67;;;;;;;;;;4994047;28;20018;-78
2022/12/27 00:34:24;;;;;;;9.85;2.47;;;;;;;;;;5012818;28;20025;-78
2022/12/27 00:36:50;;;;;;;12.57;2.78;;;;;;;;;;5005763;28;20572;-78
2022/12/27 00:39:16;;;;;;;8.93;2.33;;;;;;;;;;5007619;28;20045;-78
2022/12/27 00:41:42;;;;;;;10.68;3.10;;;;;;;;;;5015004;28;20026;-78
2022/12/27 00:44:08;;;;;;;10.65;2.45;;;;;;;;;;5015172;28;20036;-76
2022/12/27 00:46:35;;;;;;;7.75;2.35;;;;;;;;;;5015006;28;20021;-77
2022/12/27 00:49:01;;;;;;;9.88;2.78;;;;;;;;;;4996781;28;20026;-78
2022/12/27 00:51:27;;;;;;;5.80;2.00;;;;;;;;;;5014917;28;20033;-78
2022/12/27 00:53:53;;;;;;;6.68;1.92;;;;;;;;;;4997596;28;20022;-78
2022/12/27 00:56:21;;;;;;;8.48;2.38;;;;;;;;;;5014897;28;20113;-79
2022/12/27 00:58:47;;;;;;;8.23;2.25;;;;;;;;;;5014212;28;20080;-78
2022/12/27 01:01:18;;;;;;;9.32;2.38;;;;;;;;;;4997129;28;20125;-78
2022/12/27 01:03:44;;;;;;;9.45;2.20;;;;;;;;;;5014683;28;20083;-78
2022/12/27 01:06:12;;;;;;;8.38;2.00;;;;;;;;;;5014727;28;20026;-78
2022/12/27 01:08:38;;;;;;;11.70;2.25;;;;;;;;;;5013906;28;20415;-77
2022/12/27 01:11:05;;;;;;;7.07;2.35;;;;;;;;;;5014809;28;20033;-77
2022/12/27 01:13:32;;;;;;;6.32;2.10;;;;;;;;;;4997220;28;20080;-76
2022/12/27 01:15:58;;;;;;;4.78;1.30;;;;;;;;;;5014353;28;20030;-78
2022/12/27 01:18:24;;;;;;;12.73;2.63;;;;;;;;;;5013955;28;20046;-79
2022/12/27 01:20:53;;;;;;;14.63;2.60;;;;;;;;;;5015272;28;20022;-78
2022/12/27 01:23:19;;;;;;;13.35;1.88;;;;;;;;;;4996467;28;20053;-77
2022/12/27 01:25:45;;;;;;;31.80;2.88;;;;;;;;;;4996675;28;20037;-77
2022/12/27 01:28:11;;;;;;;9.02;2.20;;;;;;;;;;4996293;28;20072;-77
2022/12/27 01:30:37;;;;;;;12.63;2.08;;;;;;;;;;5014654;28;20029;-77
2022/12/27 01:33:03;;;;;;;8.13;1.67;;;;;;;;;;4996528;28;20484;-78
2022/12/27 01:35:30;;;;;;;16.58;2.13;;;;;;;;;;5014121;28;20069;-78
2022/12/27 01:37:56;;;;;;;14.50;1.80;;;;;;;;;;4997054;28;20080;-77
2022/12/27 01:40:21;;;;;;;13.10;2.08;;;;;;;;;;5014178;28;20101;-78
2022/12/27 01:42:50;;;;;;;30.83;3.65;;;;;;;;;;5013899;28;20538;-78
2022/12/27 01:45:19;;;;;;;17.15;2.85;;;;;;;;;;5014135;28;20022;-80
2022/12/27 01:47:45;;;;;;;15.30;3.00;;;;;;;;;;5013127;28;20026;-78
2022/12/27 01:50:24;;;;;;;12.48;2.50;;;;;;;;;;5013810;28;20029;-76
2022/12/27 01:53:00;;;;;;;12.00;2.85;;;;;;;;;;4996074;28;20017;-77
2022/12/27 01:55:29;;;;;;;13.23;2.53;;;;;;;;;;4995911;28;20395;-77
2022/12/27 01:58:02;;;;;;;15.18;2.30;;;;;;;;;;4995091;28;20047;-78
2022/12/27 02:00:29;;;;;;;11.00;2.00;;;;;;;;;;5013337;28;20500;-76
2022/12/27 02:02:58;;;;;;;9.95;2.58;;;;;;;;;;5013391;28;20034;-77
2022/12/27 02:05:24;;;;;;;13.00;2.55;;;;;;;;;;5013688;28;20037;-77
2022/12/27 02:07:58;;;;;;;10.25;2.63;;;;;;;;;;4995233;28;20037;-77
2022/12/27 02:10:25;;;;;;;5.78;1.92;;;;;;;;;;4995944;28;20022;-79
2022/12/27 02:12:51;;;;;;;13.65;2.67;;;;;;;;;;4996369;28;20022;-80
2022/12/27 02:15:17;;;;;;;10.00;1.90;;;;;;;;;;4995797;28;20026;-77
2022/12/27 02:17:43;;;;;;;12.02;2.13;;;;;;;;;;5012945;28;20113;-77
2022/12/27 02:20:14;;;;;;;10.02;1.80;;;;;;;;;;4995720;28;20018;-77
2022/12/27 02:25:24;;;;;;;13.52;1.83;;;;;;;;;;5013472;28;20072;-77
2022/12/27 02:27:59;;;;;;;11.40;1.73;;;;;;;;;;5012921;28;20062;-77
2022/12/27 02:30:25;;;;;;;14.75;2.78;;;;;;;;;;4995906;28;20022;-77
2022/12/27 02:32:58;;;;;;;12.38;2.40;;;;;;;;;;5014353;28;20026;-77
2022/12/27 02:35:31;;;;;;;9.48;1.70;;;;;;;;;;5014715;28;20431;-76
2022/12/27 02:38:00;;;;;;;10.35;2.10;;;;;;;;;;5012350;28;20038;-77
2022/12/27 02:54:43;;;;;;;10.65;2.60;;;;;;;;;;5031135;28;20057;-79
2022/12/27 02:57:29;;;;;;;9.65;2.05;;;;;;;;;;5028539;28;20096;-79
2022/12/27 03:03:27;;;;;;;8.00;2.67;;;;;;;;;;5013061;28;20084;-76
2022/12/27 03:08:50;;;;;;;9.40;1.48;;;;;;;;;;5037156;28;20063;-82
2022/12/27 03:16:57;;;;;;;9.02;2.28;;;;;;;;;;5021426;28;20037;-77
2022/12/27 03:33:11;;;;;;;7.53;1.85;;;;;;;;;;5011138;28;20091;-77
2022/12/27 03:33:22;;;;;;;4.38;1.65;;;;;;;;;;5012069;28;20670;-80
2022/12/27 03:38:42;;;;;;;10.02;1.75;;;;;;;;;;5011742;28;20072;-77
2022/12/27 03:43:54;;;;;;;6.63;2.13;;;;;;;;;;5012276;28;20091;-77
2022/12/27 03:46:32;;;;;;;8.80;2.67;;;;;;;;;;5011916;28;20496;-78
2022/12/27 03:49:17;;;;;;;6.40;2.10;;;;;;;;;;5011279;28;20029;-78
2022/12/27 03:51:49;;;;;;;7.57;1.90;;;;;;;;;;4994879;28;20456;-77
2022/12/27 03:54:25;;;;;;;8.48;2.47;;;;;;;;;;5011643;28;20018;-76
2022/12/27 03:56:55;;;;;;;14.65;3.10;;;;;;;;;;4994092;28;20026;-76
2022/12/27 03:59:24;;;;;;;15.07;3.10;;;;;;;;;;5011191;28;20562;-77
2022/12/27 04:01:50;;;;;;;4.20;2.05;;;;;;;;;;5011663;28;20044;-78
2022/12/27 04:04:19;;;;;;;10.93;2.70;;;;;;;;;;5011572;28;20089;-77
2022/12/27 04:06:45;;;;;;;10.93;2.65;;;;;;;;;;5011611;28;20032;-77
2022/12/27 04:36:43;;;;;;;7.40;3.00;;;;;;;;;;5002951;28;20108;-76
2022/12/27 04:39:10;;;;;;;6.45;2.58;;;;;;;;;;4985228;28;20037;-77
2022/12/27 04:56:00;;;;;;;8.95;2.70;;;;;;;;;;5011247;28;20041;-77
2022/12/27 04:58:26;;;;;;;7.55;2.45;;;;;;;;;;5010582;28;20042;-78
2022/12/27 05:03:38;;;;;;;10.45;2.50;;;;;;;;;;5011614;28;20092;-80
2022/12/27 05:06:07;;;;;;;7.82;2.13;;;;;;;;;;4993380;28;20033;-80
2022/12/27 05:14:09;;;;;;;7.53;1.90;;;;;;;;;;5011244;28;20119;-77
2022/12/27 05:16:39;;;;;;;8.85;2.25;;;;;;;;;;5010813;28;20022;-78
2022/12/27 05:19:06;;;;;;;5.80;2.97;;;;;;;;;;5010556;28;20033;-76
2022/12/27 05:21:38;;;;;;;4.93;1.75;;;;;;;;;;5013991;28;20041;-77
2022/12/27 05:26:55;;;;;;;3.85;1.65;;;;;;;;;;5014887;28;20041;-76
2022/12/27 05:29:21;;;;;;;4.57;2.10;;;;;;;;;;5013888;28;20030;-77
2022/12/27 05:31:47;;;;;;;4.75;1.45;;;;;;;;;;5014454;28;20014;-76
2022/12/27 05:34:13;;;;;;;3.58;1.85;;;;;;;;;;5015067;28;20080;-78
2022/12/27 05:36:41;;;;;;;5.38;1.40;;;;;;;;;;5017341;28;20022;-77
2022/12/27 05:39:09;;;;;;;5.32;1.58;;;;;;;;;;5016545;28;20061;-77
2022/12/27 05:41:38;;;;;;;7.47;2.00;;;;;;;;;;5016857;28;20049;-78
2022/12/27 05:44:04;;;;;;;8.85;1.83;;;;;;;;;;4999014;28;20526;-77
2022/12/27 05:46:30;;;;;;;3.92;2.00;;;;;;;;;;5015447;28;20084;-76
2022/12/27 05:48:57;;;;;;;6.55;1.60;;;;;;;;;;5013965;28;20065;-77
2022/12/27 05:51:23;;;;;;;6.28;1.88;;;;;;;;;;5015244;28;20046;-78
2022/12/27 05:53:49;;;;;;;6.32;1.58;;;;;;;;;;5015783;28;20026;-78
2022/12/27 05:56:19;;;;;;;5.82;2.20;;;;;;;;;;5014832;28;20433;-80
2022/12/27 05:58:45;;;;;;;9.15;2.75;;;;;;;;;;4997495;28;20026;-78
2022/12/27 06:01:19;;;;;;;9.18;1.55;;;;;;;;;;5015566;28;20488;-77
2022/12/27 06:03:48;;;;;;;6.93;1.50;;;;;;;;;;5014211;28;20026;-77
2022/12/27 06:06:14;;;;;;;6.47;1.67;;;;;;;;;;4996104;28;20104;-76
2022/12/27 06:08:40;;;;;;;4.63;1.70;;;;;;;;;;5012852;28;20060;-76
2022/12/27 06:11:14;;;;;;;4.20;1.58;;;;;;;;;;5014246;28;20033;-76
2022/12/27 06:13:47;;;;;;;4.18;1.83;;;;;;;;;;5013639;28;20108;-77
2022/12/27 06:16:13;;;;;;;5.38;1.42;;;;;;;;;;4980720;28;20054;-76
2022/12/27 06:18:40;;;;;;;3.90;1.25;;;;;;;;;;4995313;28;20026;-77
2022/12/27 06:21:10;;;;;;;3.45;1.33;;;;;;;;;;5013229;28;20034;-81
2022/12/27 06:23:37;;;;;;;3.63;1.73;;;;;;;;;;4995813;28;20065;-78
2022/12/27 06:26:06;;;;;;;5.65;1.70;;;;;;;;;;5013283;28;20021;-77
2022/12/27 06:28:36;;;;;;;4.93;1.50;;;;;;;;;;4995125;28;20029;-77
2022/12/27 06:31:02;;;;;;;4.53;1.58;;;;;;;;;;5012981;28;20057;-77
2022/12/27 06:33:28;;;;;;;6.18;1.40;;;;;;;;;;5012545;28;20026;-81
2022/12/27 06:35:54;;;;;;;7.25;1.38;;;;;;;;;;5011631;28;20022;-77
2022/12/27 06:38:20;;;;;;;2.90;1.83;;;;;;;;;;4980896;28;20029;-77
2022/12/27 06:40:47;;;;;;;5.38;1.25;;;;;;;;;;5013373;28;20100;-78
2022/12/27 06:43:13;;;;;;;6.35;1.70;;;;;;;;;;5013026;28;20022;-78
2022/12/27 06:45:42;;;;;;;7.00;1.58;;;;;;;;;;5013447;28;20030;-78
2022/12/27 06:48:08;;;;;;;4.03;1.13;;;;;;;;;;4979107;28;20432;-78
2022/12/27 06:50:36;;;;;;;4.10;1.40;;;;;;;;;;5013136;28;20045;-78
2022/12/27 06:53:02;;;;;;;8.63;2.05;;;;;;;;;;5013321;28;20022;-78
2022/12/27 06:55:29;;;;;;;6.15;2.05;;;;;;;;;;4995135;28;20018;-79
2022/12/27 06:57:57;;;;;;;7.07;2.00;;;;;;;;;;5012581;28;20030;-80
2022/12/27 07:00:26;;;;;;;4.40;1.40;;;;;;;;;;5012807;28;20112;-78
2022/12/27 07:02:52;;;;;;;6.20;1.48;;;;;;;;;;4995016;28;20037;-78
2022/12/27 07:05:18;;;;;;;7.88;1.80;;;;;;;;;;5012421;28;20026;-75
2022/12/27 07:07:46;;;;;;;2.70;1.40;;;;;;;;;;4994125;28;20026;-79
2022/12/27 07:10:17;;;;;;;9.60;1.75;;;;;;;;;;5012827;28;20311;-77
2022/12/27 07:12:45;;;;;;;6.03;2.47;;;;;;;;;;5012842;28;20045;-80
2022/12/27 07:15:11;;;;;;;5.00;1.45;;;;;;;;;;5012137;28;20030;-78
2022/12/27 07:17:38;;;;;;;6.28;1.75;;;;;;;;;;4994210;28;20108;-77
2022/12/27 07:20:07;;;;;;;4.35;1.38;;;;;;;;;;4996350;28;20113;-78
2022/12/27 07:22:34;;;;;;;4.80;1.10;;;;;;;;;;5014038;28;20053;-76
2022/12/27 07:25:00;;;;;;;3.10;1.67;;;;;;;;;;4995653;28;20028;-76
2022/12/27 07:27:26;;;;;;;4.85;1.40;;;;;;;;;;5012329;28;20033;-77
2022/12/27 07:29:54;;;;;;;6.07;1.45;;;;;;;;;;5012476;28;20032;-78
2022/12/27 07:32:20;;;;;;;4.97;1.60;;;;;;;;;;4994891;28;20047;-78
2022/12/27 07:34:49;;;;;;;5.88;1.77;;;;;;;;;;5012548;28;20486;-77
2022/12/27 07:37:16;;;;;;;7.68;2.28;;;;;;;;;;4998293;28;20023;-81
2022/12/27 07:39:43;;;;;;;8.13;2.58;;;;;;;;;;4997627;28;20025;-76
2022/12/27 07:42:14;;;;;;;5.97;1.75;;;;;;;;;;5012199;28;20101;-77
2022/12/27 07:44:40;;;;;;;3.80;1.42;;;;;;;;;;4994555;28;20030;-76
2022/12/27 07:47:17;;;;;;;5.32;1.58;;;;;;;;;;5011215;28;20026;-74
2022/12/27 07:49:46;;;;;;;4.20;1.60;;;;;;;;;;4994362;28;20046;-77
2022/12/27 07:52:12;;;;;;;9.25;1.60;;;;;;;;;;4993971;28;20109;-77
2022/12/27 07:54:38;;;;;;;7.45;1.73;;;;;;;;;;4994105;28;20491;-78
2022/12/27 07:57:05;;;;;;;6.70;1.75;;;;;;;;;;5010835;28;20109;-76
2022/12/27 07:59:31;;;;;;;5.68;1.80;;;;;;;;;;4994210;28;20544;-77
2022/12/27 08:02:03;;;;;;;4.00;1.20;;;;;;;;;;5011459;28;20064;-76
2022/12/27 08:04:29;;;;;;;8.73;1.40;;;;;;;;;;5012225;28;20431;-77
2022/12/27 08:07:15;;;;;;;5.00;1.77;;;;;;;;;;4993658;28;20030;-78
2022/12/27 08:09:42;;;;;;;6.55;1.80;;;;;;;;;;5011197;28;20033;-76
2022/12/27 08:12:09;;;;;;;5.32;1.88;;;;;;;;;;4994063;28;20030;-77
2022/12/27 08:14:35;;;;;;;5.95;1.77;;;;;;;;;;5011974;28;20018;-80
2022/12/27 08:17:30;;;;;;;4.88;2.38;;;;;;;;;;5012092;28;20064;-76
2022/12/27 08:19:56;;;;;;;2.58;1.52;;;;;;;;;;4995435;28;20066;-77
2022/12/27 08:22:23;;;;;;;7.38;1.85;;;;;;;;;;5022616;28;20029;-77
2022/12/27 08:24:49;;;;;;;4.43;1.88;;;;;;;;;;5030208;28;20492;-81
2022/12/27 08:27:23;;;;;;;5.50;2.10;;;;;;;;;;5012245;28;20026;-79
2022/12/27 08:29:54;;;;;;;5.95;2.20;;;;;;;;;;5033520;28;20014;-80
2022/12/27 08:35:41;;;;;;;6.85;2.05;;;;;;;;;;5012342;28;20064;-76
2022/12/27 08:38:44;;;;;;;8.40;1.83;;;;;;;;;;4994262;28;20041;-75
2022/12/27 08:45:35;;;;;;;4.32;1.50;;;;;;;;;;4967852;28;20029;-75
2022/12/27 08:47:40;;;;;;;5.00;1.58;;;;;;;;;;4931220;29;20024;-78
2022/12/27 08:50:07;;;;;;;5.38;2.13;;;;;;;;;;5007355;28;20712;-76
2022/12/27 08:52:34;;;;;;;5.05;1.92;;;;;;;;;;4995472;28;20113;-76
2022/12/27 08:55:05;;;;;;;5.25;1.63;;;;;;;;;;5011731;28;20018;-78
2022/12/27 08:57:37;;;;;;;5.45;1.70;;;;;;;;;;5013340;28;20245;-76
2022/12/27 09:00:05;;;;;;;5.22;1.58;;;;;;;;;;5014262;28;20018;-77
2022/12/27 09:02:34;;;;;;;6.80;1.70;;;;;;;;;;5013008;28;20021;-76
2022/12/27 09:05:02;;;;;;;6.88;1.92;;;;;;;;;;5013355;28;20088;-76
2022/12/27 09:07:29;;;;;;;2.67;1.42;;;;;;;;;;5007102;28;20026;-77
2022/12/27 09:09:55;;;;;;;4.03;1.70;;;;;;;;;;5002014;28;20030;-77
2022/12/27 09:12:24;;;;;;;6.43;2.20;;;;;;;;;;5012333;28;20021;-77
2022/12/27 09:14:50;;;;;;;9.50;2.40;;;;;;;;;;4995465;28;20018;-76
2022/12/27 09:17:16;;;;;;;7.53;1.85;;;;;;;;;;5012179;28;20543;-77
2022/12/27 09:19:45;;;;;;;7.50;2.40;;;;;;;;;;4994931;28;20036;-76
2022/12/27 09:22:14;;;;;;;7.88;1.95;;;;;;;;;;5012175;28;20064;-76
2022/12/27 09:24:40;;;;;;;9.68;1.92;;;;;;;;;;5000887;28;20046;-77
2022/12/27 09:27:06;;;;;;;8.30;2.30;;;;;;;;;;5012214;28;20052;-74
2022/12/27 09:29:35;;;;;;;8.02;1.75;;;;;;;;;;5014021;28;20384;-77
2022/12/27 09:32:01;;;;;;;5.35;1.90;;;;;;;;;;4994325;28;20427;-77
2022/12/27 09:34:32;;;;;;;9.98;2.22;;;;;;;;;;5012853;28;20083;-76
2022/12/27 09:36:58;;;;;;;7.68;2.30;;;;;;;;;;5005777;28;20022;-74
2022/12/27 09:39:24;;;;;;;3.55;1.92;;;;;;;;;;5013694;28;20496;-76
2022/12/27 09:41:57;;;;;;;3.85;1.52;;;;;;;;;;4996224;28;20515;-76
2022/12/27 09:44:26;;;;;;;6.55;1.60;;;;;;;;;;5014251;28;20014;-77
2022/12/27 09:46:55;;;;;;;6.15;1.70;;;;;;;;;;5014245;28;20515;-74
2022/12/27 09:49:29;;;;;;;5.13;1.42;;;;;;;;;;5013115;28;20034;-75
2022/12/27 09:52:02;;;;;;;4.28;1.92;;;;;;;;;;5014025;28;20018;-76
2022/12/27 09:54:37;;;;;;;4.90;1.50;;;;;;;;;;5015390;28;20448;-75
2022/12/27 09:57:07;;;;;;;3.97;1.67;;;;;;;;;;5015338;28;20018;-76
2022/12/27 09:59:38;;;;;;;3.15;1.55;;;;;;;;;;5012134;28;20124;-79
2022/12/27 10:02:17;;;;;;;3.22;1.50;;;;;;;;;;5013988;28;20061;-77
2022/12/27 10:04:49;;;;;;;5.13;1.40;;;;;;;;;;5014206;28;20105;-75
2022/12/27 10:07:25;;;;;;;4.07;1.60;;;;;;;;;;5011954;28;20038;-78
2022/12/27 10:09:58;;;;;;;3.88;1.70;;;;;;;;;;5015140;28;20022;-78
2022/12/27 10:12:24;;;;;;;4.47;1.65;;;;;;;;;;5016192;28;20096;-75
2022/12/27 10:15:16;;;;;;;8.60;2.25;;;;;;;;;;5015402;28;20392;-75
2022/12/27 10:17:58;;;;;;;5.25;1.20;;;;;;;;;;4979805;28;20038;-77
2022/12/27 10:20:40;;;;;;;2.97;1.40;;;;;;;;;;5024887;28;20033;-74
2022/12/27 10:23:06;;;;;;;;;;;;;;;;;;5021886;28;20026;-74
2022/12/27 10:25:34;;;;;;;3.58;1.20;;;;;;;;;;5021895;28;20363;-76
2022/12/27 10:28:01;;;;;;;5.97;1.80;;;;;;;;;;5018579;28;20038;-75
2022/12/27 10:30:29;;;;;;;5.97;2.05;;;;;;;;;;5013441;28;20030;-75
2022/12/27 10:32:55;;;;;;;9.43;5.10;;;;;;;;;;5013116;28;20499;-73
2022/12/27 10:35:23;;;;;;;7.78;2.15;;;;;;;;;;4995747;28;20075;-77
2022/12/27 10:37:49;;;;;;;7.95;3.30;;;;;;;;;;5013192;28;20022;-75
2022/12/27 10:40:32;;;;;;;9.48;1.30;;;;;;;;;;5012556;28;20026;-78
2022/12/27 10:43:01;;;;;;;3.72;1.30;;;;;;;;;;4996007;28;20022;-74
2022/12/27 10:45:28;;;;;;;5.30;1.70;;;;;;;;;;5012908;28;20022;-76
2022/12/27 10:48:02;;;;;;;5.38;1.50;;;;;;;;;;4994519;28;20114;-74
2022/12/27 10:50:50;;;;;;;4.70;1.60;;;;;;;;;;4995019;28;20014;-77
2022/12/27 10:56:30;;;;;;;5.35;1.48;;;;;;;;;;5004240;28;20026;-74
2022/12/27 10:59:27;;;;;;;6.22;1.85;;;;;;;;;;5012980;28;20395;-75
2022/12/27 11:02:04;;;;;;;5.50;1.75;;;;;;;;;;4979968;28;20097;-75
2022/12/27 11:04:32;;;;;;;4.20;1.58;;;;;;;;;;5013243;28;20022;-75
2022/12/27 11:06:58;;;;;;;4.43;1.52;;;;;;;;;;5014294;28;20025;-76
2022/12/27 11:09:25;;;;;;;5.18;1.52;;;;;;;;;;5014438;28;20029;-75
2022/12/27 11:11:54;;;;;;;5.30;1.42;;;;;;;;;;5013767;28;20026;-78
2022/12/27 11:14:21;;;;;;;5.10;1.77;;;;;;;;;;5013868;28;20029;-75
2022/12/27 11:16:48;;;;;;;9.40;2.33;;;;;;;;;;5013050;28;20365;-78
2022/12/27 11:19:25;;;;;;;4.70;1.75;;;;;;;;;;5011598;28;20112;-75
2022/12/27 11:21:53;;;;;;;4.57;1.50;;;;;;;;;;4994895;28;20029;-78
2022/12/27 11:24:25;;;;;;;5.70;1.92;;;;;;;;;;4995278;28;20034;-75
2022/12/27 11:26:59;;;;;;;3.58;1.10;;;;;;;;;;4994768;28;20117;-76
2022/12/27 11:29:26;;;;;;;4.88;1.88;;;;;;;;;;4993878;28;20034;-75
2022/12/27 11:31:53;;;;;;;5.18;1.33;;;;;;;;;;5012226;28;20041;-74
2022/12/27 11:34:30;;;;;;;3.40;1.77;;;;;;;;;;5012304;28;20025;-76
2022/12/27 11:37:02;;;;;;;7.53;2.45;;;;;;;;;;5012120;28;20030;-78
2022/12/27 11:39:38;;;;;;;6.28;1.85;;;;;;;;;;4991582;28;20070;-77
2022/12/27 11:42:24;;;;;;;5.72;1.40;;;;;;;;;;4994171;28;20022;-74
2022/12/27 11:44:56;;;;;;;6.32;1.48;;;;;;;;;;4954561;28;20061;-78
2022/12/27 11:47:44;;;;;;;7.80;1.83;;;;;;;;;;4993758;28;20026;-78
2022/12/27 11:50:10;;;;;;;4.95;1.30;;;;;;;;;;4995048;28;20228;-79
2022/12/27 11:52:55;;;;;;;3.15;1.35;;;;;;;;;;5012197;28;20488;-79
2022/12/27 11:55:40;;;;;;;4.95;1.30;;;;;;;;;;4994392;28;20056;-75
2022/12/27 11:58:29;;;;;;;5.07;1.70;;;;;;;;;;4993528;28;20037;-74
2022/12/27 12:01:04;;;;;;;8.15;1.42;;;;;;;;;;4983250;28;20042;-75
2022/12/27 12:03:33;;;;;;;5.65;1.70;;;;;;;;;;4994308;28;20135;-73
2022/12/27 12:06:05;;;;;;;3.00;1.15;;;;;;;;;;4993572;28;20061;-73
2022/12/27 12:08:31;;;;;;;6.47;1.38;;;;;;;;;;5010561;28;20022;-76
2022/12/27 12:11:24;;;;;;;4.50;1.77;;;;;;;;;;4993805;28;20156;-76
2022/12/27 12:14:08;;;;;;;4.78;1.45;;;;;;;;;;4971847;28;20058;-72
2022/12/27 12:16:44;;;;;;;5.65;1.42;;;;;;;;;;4999508;28;20029;-73
2022/12/27 12:19:19;;;;;;;6.15;2.15;;;;;;;;;;5010648;28;20061;-74
2022/12/27 12:21:54;;;;;;;1.73;0.93;;;;;;;;;;4994540;28;20036;-73
2022/12/27 12:24:41;;;;;;;5.32;1.70;;;;;;;;;;5011643;28;20036;-74
2022/12/27 12:27:10;;;;;;;4.78;1.20;;;;;;;;;;5011057;28;20045;-72
2022/12/27 12:29:49;;;;;;;3.40;1.35;;;;;;;;;;5010804;28;20033;-76
2022/12/27 12:32:15;;;;;;;2.08;1.20;;;;;;;;;;5007520;28;20120;-74
2022/12/27 12:34:47;;;;;;;5.00;1.40;;;;;;;;;;5015072;28;20056;-73
2022/12/27 12:37:18;;;;;;;4.00;1.35;;;;;;;;;;5014478;28;20072;-76
2022/12/27 12:40:03;;;;;;;3.53;1.02;;;;;;;;;;5015558;28;20072;-74
2022/12/27 12:43:01;;;;;;;3.50;1.33;;;;;;;;;;5015024;28;20018;-71
2022/12/27 12:45:39;;;;;;;4.35;1.80;;;;;;;;;;4971600;28;20037;-74
2022/12/27 12:48:27;;;;;;;3.13;1.63;;;;;;;;;;4998143;28;20502;-73
2022/12/27 12:51:05;;;;;;;4.03;1.33;;;;;;;;;;5015098;28;20018;-73
2022/12/27 12:53:43;;;;;;;3.33;1.45;;;;;;;;;;5015300;28;20021;-74
2022/12/27 12:56:27;;;;;;;5.65;1.30;;;;;;;;;;4999483;28;20100;-74
2022/12/27 12:58:59;;;;;;;3.42;1.42;;;;;;;;;;5014592;28;20030;-76
2022/12/27 13:01:34;;;;;;;6.03;1.60;;;;;;;;;;5015332;28;20034;-74
2022/12/27 13:04:03;;;;;;;3.08;1.23;;;;;;;;;;5015978;28;20061;-76
2022/12/27 13:06:48;;;;;;;3.80;1.80;;;;;;;;;;5014895;28;20026;-73
2022/12/27 13:09:33;;;;;;;4.90;1.60;;;;;;;;;;4996271;28;20029;-73
2022/12/27 13:12:36;;;;;;;3.95;1.63;;;;;;;;;;4982468;23;20074;-77
2022/12/27 13:15:49;;;;;;;;;;;;;;;;;;;;;
2022/12/27 13:21:26;;;;;;;;;;;;;;;;;;4943777;28;20035;-80
2022/12/27 13:24:02;;;;;;;5.85;1.77;;;;;;;;;;4966306;28;19957;-79
2022/12/27 13:26:58;;;;;;;3.25;1.23;;;;;;;;;;5012584;23;20075;-77
2022/12/27 13:29:31;;;;;;;4.72;1.55;;;;;;;;;;4976793;28;20074;-77
2022/12/27 13:32:00;;;;;;;4.15;1.63;;;;;;;;;;4996239;28;20147;-76
2022/12/27 13:34:46;;;;;;;5.85;1.90;;;;;;;;;;4999405;28;20026;-76
2022/12/27 13:37:19;;;;;;;3.63;1.80;;;;;;;;;;4980007;28;20029;-77
2022/12/27 13:39:51;;;;;;;7.00;1.80;;;;;;;;;;4982438;28;20109;-77
2022/12/27 13:42:24;;;;;;;4.50;1.55;;;;;;;;;;4978472;28;20110;-77
2022/12/27 13:44:53;;;;;;;7.30;2.25;;;;;;;;;;4978557;28;20015;-76
2022/12/27 13:47:19;;;;;;;4.57;1.45;;;;;;;;;;4976218;28;20370;-76
2022/12/27 13:49:53;;;;;;;4.03;1.73;;;;;;;;;;4973475;28;20031;-77
2022/12/27 13:52:38;;;;;;;2.97;1.17;;;;;;;;;;4972197;28;20019;-76
2022/12/27 13:55:23;;;;;;;5.78;1.50;;;;;;;;;;4973307;28;20027;-75
2022/12/27 13:57:50;;;;;;;5.20;1.58;;;;;;;;;;4973412;28;20035;-77
2022/12/27 14:00:17;;;;;;;3.83;1.17;;;;;;;;;;4969513;28;20107;-76
2022/12/27 14:02:46;;;;;;;5.93;1.65;;;;;;;;;;4963544;28;20045;-78
2022/12/27 14:05:18;;;;;;;3.67;1.40;;;;;;;;;;4974721;28;20391;-78
2022/12/27 14:07:47;;;;;;;3.63;1.45;;;;;;;;;;4973834;28;20449;-76
2022/12/27 14:10:21;;;;;;;6.93;2.15;;;;;;;;;;4974116;28;20444;-77
2022/12/27 14:13:02;;;;;;;5.53;1.88;;;;;;;;;;4974089;28;20080;-76
2022/12/27 14:15:51;;;;;;;4.75;1.48;;;;;;;;;;4959893;28;20027;-76
2022/12/27 14:18:26;;;;;;;6.53;1.80;;;;;;;;;;4951415;28;20374;-76
2022/12/27 14:21:19;;;;;;;7.53;1.85;;;;;;;;;;4974236;28;20034;-76
2022/12/27 14:23:55;;;;;;;3.85;1.67;;;;;;;;;;4976045;28;20125;-79
2022/12/27 14:26:43;;;;;;;7.10;1.95;;;;;;;;;;4975504;28;20031;-75
2022/12/27 14:29:24;;;;;;;4.80;1.92;;;;;;;;;;4973767;28;20023;-79
2022/12/27 14:32:03;;;;;;;8.73;1.88;;;;;;;;;;4975231;28;20027;-77
2022/12/27 14:34:43;;;;;;;3.75;1.63;;;;;;;;;;4977829;28;20023;-78
2022/12/27 14:37:15;;;;;;;4.68;1.75;;;;;;;;;;4979405;28;20036;-76
2022/12/27 14:39:50;;;;;;;6.45;1.60;;;;;;;;;;4976029;28;20081;-77
2022/12/27 14:42:16;;;;;;;5.28;1.65;;;;;;;;;;4975489;28;20081;-78
2022/12/27 14:44:48;;;;;;;5.95;2.15;;;;;;;;;;4974546;28;20058;-76
2022/12/27 14:47:14;;;;;;;3.50;1.35;;;;;;;;;;4973353;28;20065;-78
2022/12/27 14:49:59;;;;;;;6.18;1.80;;;;;;;;;;4972220;28;20062;-76
2022/12/27 14:52:37;;;;;;;3.35;1.80;;;;;;;;;;4970801;28;20432;-77
2022/12/27 14:55:22;;;;;;;4.72;1.77;;;;;;;;;;4973389;28;20027;-77
2022/12/27 14:57:54;;;;;;;4.50;1.60;;;;;;;;;;4971874;28;20034;-77
2022/12/27 15:00:20;;;;;;;5.88;2.15;;;;;;;;;;4971911;28;20027;-75
2022/12/27 15:02:46;;;;;;;4.47;2.35;;;;;;;;;;4973574;28;20108;-77
2022/12/27 15:05:24;;;;;;;4.90;2.20;;;;;;;;;;4972219;28;20090;-76
2022/12/27 15:08:00;;;;;;;5.15;1.95;;;;;;;;;;4970267;28;20038;-76
2022/12/27 15:10:35;;;;;;;5.40;2.08;;;;;;;;;;4973136;28;20049;-76
2022/12/27 15:13:01;;;;;;;5.75;1.30;;;;;;;;;;4972927;28;20114;-76
2022/12/27 15:15:33;;;;;;;7.05;1.75;;;;;;;;;;4973032;28;20525;-78
2022/12/27 15:18:11;;;;;;;6.30;2.28;;;;;;;;;;4972340;28;20027;-76
2022/12/27 15:20:45;;;;;;;4.80;1.80;;;;;;;;;;4971608;28;20133;-77
2022/12/27 15:23:23;;;;;;;2.33;1.23;;;;;;;;;;4974051;28;20018;-79
2022/12/27 15:26:00;;;;;;;5.57;1.45;;;;;;;;;;4972201;28;20038;-79
2022/12/27 15:28:32;;;;;;;5.22;1.70;;;;;;;;;;4960087;28;20037;-76
2022/12/27 15:31:17;;;;;;;4.35;2.28;;;;;;;;;;4973462;28;20085;-78
2022/12/27 15:33:46;;;;;;;6.03;2.40;;;;;;;;;;4972816;28;20026;-79
2022/12/27 15:36:16;;;;;;;4.03;2.03;;;;;;;;;;4972997;28;20022;-77
2022/12/27 15:39:00;;;;;;;6.05;2.15;;;;;;;;;;4973025;28;20377;-77
2022/12/27 15:41:46;;;;;;;9.02;2.35;;;;;;;;;;4973063;28;20031;-77
2022/12/27 15:44:12;;;;;;;5.55;1.63;;;;;;;;;;4958991;28;20452;-79
2022/12/27 15:46:38;;;;;;;8.02;2.05;;;;;;;;;;4973278;28;20023;-77
2022/12/27 15:49:17;;;;;;;6.53;2.15;;;;;;;;;;4972683;28;20031;-79
2022/12/27 15:51:49;;;;;;;7.15;2.63;;;;;;;;;;4973964;28;20027;-78
2022/12/27 15:54:15;;;;;;;5.63;2.90;;;;;;;;;;4973810;28;20022;-79
2022/12/27 15:56:47;;;;;;;5.82;2.70;;;;;;;;;;4972082;28;20499;-78
2022/12/27 15:59:32;;;;;;;6.00;2.10;;;;;;;;;;4972721;28;20046;-79
2022/12/27 16:02:16;;;;;;;3.92;2.13;;;;;;;;;;4973918;28;20042;-78
2022/12/27 16:04:47;;;;;;;2.97;1.80;;;;;;;;;;4976114;28;20093;-77
2022/12/27 16:07:38;;;;;;;4.97;2.10;;;;;;;;;;4979088;28;20031;-79
2022/12/27 16:10:23;;;;;;;8.27;3.47;;;;;;;;;;4975010;28;20030;-79
2022/12/27 16:12:50;;;;;;;22.02;8.60;;;;;;;;;;4971117;28;20135;-78
2022/12/27 16:15:36;;;;;;;8.85;4.97;;;;;;;;;;4967594;28;20030;-76
2022/12/27 16:18:03;;;;;;;8.70;3.75;;;;;;;;;;4969468;28;20444;-77
2022/12/27 16:20:30;;;;;;;7.53;3.92;;;;;;;;;;4969074;28;20079;-77
2022/12/27 16:22:56;;;;;;;9.20;3.33;;;;;;;;;;4969172;28;20533;-77
2022/12/27 16:25:25;;;;;;;23.20;12.20;;;;;;;;;;4969060;28;20512;-77
2022/12/27 16:28:01;;;;;;;21.45;12.55;;;;;;;;;;4968818;28;20066;-77
2022/12/27 16:30:37;;;;;;;18.35;8.82;;;;;;;;;;4968363;28;20286;-76
2022/12/27 16:33:03;;;;;;;8.82;4.45;;;;;;;;;;4969607;28;20496;-77
2022/12/27 16:35:30;;;;;;;10.70;4.03;;;;;;;;;;4970365;28;20496;-78
2022/12/27 16:38:02;;;;;;;6.95;3.88;;;;;;;;;;4969598;28;20118;-78
2022/12/27 16:40:28;;;;;;;6.60;3.17;;;;;;;;;;4968861;28;20079;-76
2022/12/27 16:42:57;;;;;;;9.07;3.17;;;;;;;;;;4969212;28;20473;-77
2022/12/27 16:45:23;;;;;;;8.13;3.80;;;;;;;;;;4969237;28;20041;-77
2022/12/27 16:47:55;;;;;;;6.90;3.80;;;;;;;;;;4969052;28;20121;-76
2022/12/27 16:50:32;;;;;;;8.40;3.78;;;;;;;;;;4971140;28;20520;-76
2022/12/27 16:53:21;;;;;;;9.57;3.10;;;;;;;;;;4969246;28;20114;-76
2022/12/27 16:55:58;;;;;;;9.25;4.97;;;;;;;;;;4970756;28;20062;-78
2022/12/27 16:58:27;;;;;;;9.65;5.07;;;;;;;;;;4970052;28;20448;-77
2022/12/27 17:00:54;;;;;;;8.82;4.35;;;;;;;;;;4972758;28;20023;-78